MEB weather

Melbourne Essendon Airport
Victoria, Australia

Public forecast

Using degrees Celsius for public forecast. Weather courtesy of forecast.io.

METAR (pilot weather report)

Retrieved 2019/04/19 03:00 UTC (56 minutes ago):

YMEN 190300Z AUTO 29004KT 220V360 9999 // NCD 21/08 Q1025

TAF (pilot weather forecast)

Forecast is more than 12 hours old.

Closest forecast is Melbourne International Airport, 4.3 nm (8.0 km) NW. Retrieved 2019/04/18 00:00 UTC (1 day ago):

TAF YMML 182313Z 1900/2006 VRB05KT CAVOK FM190600 15008KT CAVOK FM191100 01006KT CAVOK FM192100 01013KT CAVOK